sensor_id;sensor_type;location;lat;lon;timestamp;pressure;altitude;pressure_sealevel;temperature;humidity
53546;BME280;39432;51.902;10.844;2023-02-10T00:02:10;101187.00;;;3.55;100.00
53546;BME280;39432;51.902;10.844;2023-02-10T00:04:40;101184.50;;;3.37;100.00
53546;BME280;39432;51.902;10.844;2023-02-10T00:07:09;101183.53;;;3.14;100.00
53546;BME280;39432;51.902;10.844;2023-02-10T00:09:39;101182.84;;;2.87;100.00
53546;BME280;39432;51.902;10.844;2023-02-10T00:12:09;101182.81;;;2.79;100.00
53546;BME280;39432;51.902;10.844;2023-02-10T00:14:41;101177.06;;;2.58;100.00
53546;BME280;39432;51.902;10.844;2023-02-10T00:17:11;101179.78;;;2.66;100.00
53546;BME280;39432;51.902;10.844;2023-02-10T00:19:44;101188.75;;;2.75;100.00
53546;BME280;39432;51.902;10.844;2023-02-10T00:22:13;101195.03;;;2.92;100.00
53546;BME280;39432;51.902;10.844;2023-02-10T00:24:43;101197.00;;;2.73;100.00
53546;BME280;39432;51.902;10.844;2023-02-10T00:27:13;101191.97;;;2.70;100.00
53546;BME280;39432;51.902;10.844;2023-02-10T00:29:50;101203.13;;;2.75;100.00
53546;BME280;39432;51.902;10.844;2023-02-10T00:32:20;101201.41;;;2.82;100.00
53546;BME280;39432;51.902;10.844;2023-02-10T00:34:49;101203.78;;;2.77;100.00
53546;BME280;39432;51.902;10.844;2023-02-10T00:37:19;101202.44;;;2.81;100.00
53546;BME280;39432;51.902;10.844;2023-02-10T00:39:51;101199.03;;;2.79;100.00
53546;BME280;39432;51.902;10.844;2023-02-10T00:42:21;101203.78;;;2.85;100.00
53546;BME280;39432;51.902;10.844;2023-02-10T00:44:54;101204.47;;;2.87;100.00
53546;BME280;39432;51.902;10.844;2023-02-10T00:47:24;101209.03;;;2.95;100.00
53546;BME280;39432;51.902;10.844;2023-02-10T00:49:54;101207.50;;;2.84;100.00
53546;BME280;39432;51.902;10.844;2023-02-10T00:52:24;101210.91;;;2.86;100.00
53546;BME280;39432;51.902;10.844;2023-02-10T00:54:56;101220.31;;;2.74;100.00
53546;BME280;39432;51.902;10.844;2023-02-10T00:57:26;101226.94;;;2.88;100.00
53546;BME280;39432;51.902;10.844;2023-02-10T00:59:58;101218.81;;;2.96;100.00
53546;BME280;39432;51.902;10.844;2023-02-10T01:02:29;101212.06;;;2.92;100.00
53546;BME280;39432;51.902;10.844;2023-02-10T01:04:59;101212.06;;;3.00;100.00
53546;BME280;39432;51.902;10.844;2023-02-10T01:07:29;101213.44;;;3.04;100.00
53546;BME280;39432;51.902;10.844;2023-02-10T01:10:00;101207.66;;;3.07;100.00
53546;BME280;39432;51.902;10.844;2023-02-10T01:12:29;101218.31;;;3.17;100.00
53546;BME280;39432;51.902;10.844;2023-02-10T01:15:04;101216.13;;;3.37;100.00
53546;BME280;39432;51.902;10.844;2023-02-10T01:17:33;101224.56;;;3.34;100.00
53546;BME280;39432;51.902;10.844;2023-02-10T01:20:04;101222.38;;;3.21;100.00
53546;BME280;39432;51.902;10.844;2023-02-10T01:22:35;101227.44;;;3.40;100.00
53546;BME280;39432;51.902;10.844;2023-02-10T01:25:05;101223.75;;;3.25;100.00
53546;BME280;39432;51.902;10.844;2023-02-10T01:27:35;101228.97;;;3.43;100.00
53546;BME280;39432;51.902;10.844;2023-02-10T01:30:10;101228.78;;;3.44;100.00
53546;BME280;39432;51.902;10.844;2023-02-10T01:32:40;101223.38;;;3.44;100.00
53546;BME280;39432;51.902;10.844;2023-02-10T01:35:10;101222.88;;;3.33;100.00
53546;BME280;39432;51.902;10.844;2023-02-10T01:37:39;101223.53;;;3.35;100.00
53546;BME280;39432;51.902;10.844;2023-02-10T01:40:09;101218.00;;;3.04;100.00
53546;BME280;39432;51.902;10.844;2023-02-10T01:42:39;101218.66;;;2.81;100.00
53546;BME280;39432;51.902;10.844;2023-02-10T01:45:18;101217.63;;;2.66;100.00
53546;BME280;39432;51.902;10.844;2023-02-10T01:47:50;101217.28;;;2.77;100.00
53546;BME280;39432;51.902;10.844;2023-02-10T01:50:23;101220.63;;;2.63;100.00
53546;BME280;39432;51.902;10.844;2023-02-10T01:52:55;101223.72;;;2.76;100.00
53546;BME280;39432;51.902;10.844;2023-02-10T01:55:28;101218.94;;;2.54;100.00
53546;BME280;39432;51.902;10.844;2023-02-10T01:58:01;101226.91;;;2.72;100.00
53546;BME280;39432;51.902;10.844;2023-02-10T02:00:34;101222.66;;;2.53;100.00
53546;BME280;39432;51.902;10.844;2023-02-10T02:03:05;101218.91;;;2.37;100.00
53546;BME280;39432;51.902;10.844;2023-02-10T02:05:36;101221.97;;;2.43;100.00
53546;BME280;39432;51.902;10.844;2023-02-10T02:08:10;101228.06;;;2.69;100.00
53546;BME280;39432;51.902;10.844;2023-02-10T02:10:49;101221.53;;;2.88;100.00
53546;BME280;39432;51.902;10.844;2023-02-10T02:13:28;101233.84;;;2.90;100.00
53546;BME280;39432;51.902;10.844;2023-02-10T02:16:12;101234.53;;;2.93;100.00
53546;BME280;39432;51.902;10.844;2023-02-10T02:18:47;101242.28;;;2.71;100.00
53546;BME280;39432;51.902;10.844;2023-02-10T02:25:12;101240.25;;;2.73;100.00
53546;BME280;39432;51.902;10.844;2023-02-10T02:28:02;101241.97;;;2.99;100.00
53546;BME280;39432;51.902;10.844;2023-02-10T02:30:44;101242.28;;;2.71;100.00
53546;BME280;39432;51.902;10.844;2023-02-10T02:33:22;101246.69;;;2.80;100.00
53546;BME280;39432;51.902;10.844;2023-02-10T02:36:00;101244.69;;;2.99;100.00
53546;BME280;39432;51.902;10.844;2023-02-10T02:38:37;101246.00;;;2.78;100.00
53546;BME280;39432;51.902;10.844;2023-02-10T02:41:07;101237.53;;;2.65;100.00
53546;BME280;39432;51.902;10.844;2023-02-10T02:43:40;101242.94;;;2.65;100.00
53546;BME280;39432;51.902;10.844;2023-02-10T02:46:17;101248.00;;;2.60;100.00
53546;BME280;39432;51.902;10.844;2023-02-10T02:48:58;101244.59;;;2.50;100.00
53546;BME280;39432;51.902;10.844;2023-02-10T02:51:37;101250.06;;;2.82;100.00
53546;BME280;39432;51.902;10.844;2023-02-10T02:54:15;101253.72;;;2.57;100.00
53546;BME280;39432;51.902;10.844;2023-02-10T02:56:50;101247.97;;;2.52;100.00
53546;BME280;39432;51.902;10.844;2023-02-10T02:59:31;101252.34;;;2.45;100.00
53546;BME280;39432;51.902;10.844;2023-02-10T03:02:04;101258.44;;;2.55;100.00
53546;BME280;39432;51.902;10.844;2023-02-10T03:04:41;101256.56;;;2.47;100.00
53546;BME280;39432;51.902;10.844;2023-02-10T03:07:12;101247.03;;;2.27;100.00
53546;BME280;39432;51.902;10.844;2023-02-10T03:09:43;101258.41;;;2.38;100.00
53546;BME280;39432;51.902;10.844;2023-02-10T03:12:13;101268.16;;;2.31;100.00
53546;BME280;39432;51.902;10.844;2023-02-10T03:14:42;101268.53;;;2.45;100.00
53546;BME280;39432;51.902;10.844;2023-02-10T03:17:12;101271.28;;;2.53;100.00
53546;BME280;39432;51.902;10.844;2023-02-10T03:19:44;101268.25;;;2.56;100.00
53546;BME280;39432;51.902;10.844;2023-02-10T03:22:14;101265.34;;;2.49;100.00
53546;BME280;39432;51.902;10.844;2023-02-10T03:24:44;101270.97;;;2.64;100.00
53546;BME280;39432;51.902;10.844;2023-02-10T03:27:13;101281.09;;;2.62;100.00
53546;BME280;39432;51.902;10.844;2023-02-10T03:29:43;101266.88;;;2.52;100.00
53546;BME280;39432;51.902;10.844;2023-02-10T03:32:15;101281.38;;;2.43;100.00
53546;BME280;39432;51.902;10.844;2023-02-10T03:34:48;101283.38;;;2.41;100.00
53546;BME280;39432;51.902;10.844;2023-02-10T03:37:17;101293.16;;;2.42;100.00
53546;BME280;39432;51.902;10.844;2023-02-10T03:39:47;101283.78;;;2.54;100.00
53546;BME280;39432;51.902;10.844;2023-02-10T03:42:17;101291.59;;;2.65;100.00
53546;BME280;39432;51.902;10.844;2023-02-10T03:44:46;101286.47;;;2.54;100.00
53546;BME280;39432;51.902;10.844;2023-02-10T03:47:16;101290.47;;;2.42;100.00
53546;BME280;39432;51.902;10.844;2023-02-10T03:49:48;101291.59;;;2.65;100.00
53546;BME280;39432;51.902;10.844;2023-02-10T03:52:18;101289.25;;;2.70;100.00
53546;BME280;39432;51.902;10.844;2023-02-10T03:54:47;101287.16;;;2.56;100.00
53546;BME280;39432;51.902;10.844;2023-02-10T03:57:17;101285.28;;;2.48;100.00
53546;BME280;39432;51.902;10.844;2023-02-10T03:59:46;101279.88;;;2.56;100.00
53546;BME280;39432;51.902;10.844;2023-02-10T04:02:16;101299.38;;;2.76;100.00
53546;BME280;39432;51.902;10.844;2023-02-10T04:04:49;101295.44;;;2.54;100.00
53546;BME280;39432;51.902;10.844;2023-02-10T04:07:18;101288.13;;;2.47;100.00
53546;BME280;39432;51.902;10.844;2023-02-10T04:09:48;101285.28;;;2.48;100.00
53546;BME280;39432;51.902;10.844;2023-02-10T04:12:18;101297.25;;;2.46;100.00
53546;BME280;39432;51.902;10.844;2023-02-10T04:14:47;101298.44;;;2.43;100.00
53546;BME280;39432;51.902;10.844;2023-02-10T04:17:17;101292.59;;;2.30;100.00
53546;BME280;39432;51.902;10.844;2023-02-10T04:19:49;101297.94;;;2.48;100.00
53546;BME280;39432;51.902;10.844;2023-02-10T04:22:19;101299.66;;;2.57;100.00
53546;BME280;39432;51.902;10.844;2023-02-10T04:24:48;101301.31;;;2.50;100.00
53546;BME280;39432;51.902;10.844;2023-02-10T04:27:18;101308.16;;;2.36;100.00
53546;BME280;39432;51.902;10.844;2023-02-10T04:29:48;101303.28;;;2.40;100.00
53546;BME280;39432;51.902;10.844;2023-02-10T04:32:17;101299.09;;;2.37;100.00
53546;BME280;39432;51.902;10.844;2023-02-10T04:34:49;101291.13;;;2.35;100.00
53546;BME280;39432;51.902;10.844;2023-02-10T04:37:19;101304.19;;;2.56;100.00
53546;BME280;39432;51.902;10.844;2023-02-10T04:39:49;101300.00;;;2.54;100.00
53546;BME280;39432;51.902;10.844;2023-02-10T04:42:18;101304.97;;;2.41;100.00
53546;BME280;39432;51.902;10.844;2023-02-10T04:44:56;101313.44;;;2.46;100.00
53546;BME280;39432;51.902;10.844;2023-02-10T04:47:27;101314.81;;;2.50;100.00
53546;BME280;39432;51.902;10.844;2023-02-10T04:50:00;101315.19;;;2.55;100.00
53546;BME280;39432;51.902;10.844;2023-02-10T04:52:31;101307.03;;;2.47;100.00
53546;BME280;39432;51.902;10.844;2023-02-10T04:55:01;101312.66;;;2.19;100.00
53546;BME280;39432;51.902;10.844;2023-02-10T04:57:30;101323.56;;;2.09;100.00
53546;BME280;39432;51.902;10.844;2023-02-10T05:00:00;101321.38;;;2.47;100.00
53546;BME280;39432;51.902;10.844;2023-02-10T05:02:30;101326.84;;;2.21;100.00
53546;BME280;39432;51.902;10.844;2023-02-10T05:05:04;101322.03;;;2.75;100.00
53546;BME280;39432;51.902;10.844;2023-02-10T05:07:34;101320.72;;;2.11;100.00
53546;BME280;39432;51.902;10.844;2023-02-10T05:10:04;101327.25;;;2.34;100.00
53546;BME280;39432;51.902;10.844;2023-02-10T05:12:34;101319.94;;;2.69;100.00
53546;BME280;39432;51.902;10.844;2023-02-10T05:15:04;101314.44;;;2.36;100.00
53546;BME280;39432;51.902;10.844;2023-02-10T05:17:34;101315.47;;;2.44;100.00
53546;BME280;39432;51.902;10.844;2023-02-10T05:20:08;101324.63;;;2.17;100.00
53546;BME280;39432;51.902;10.844;2023-02-10T05:22:38;101335.25;;;1.92;100.00
53546;BME280;39432;51.902;10.844;2023-02-10T05:25:08;101337.28;;;2.16;100.00
53546;BME280;39432;51.902;10.844;2023-02-10T05:27:38;101341.75;;;2.33;100.00
53546;BME280;39432;51.902;10.844;2023-02-10T05:30:10;101347.13;;;1.99;100.00
53546;BME280;39432;51.902;10.844;2023-02-10T05:32:40;101339.53;;;2.29;100.00
53546;BME280;39432;51.902;10.844;2023-02-10T05:35:12;101340.81;;;1.91;100.00
53546;BME280;39432;51.902;10.844;2023-02-10T05:37:42;101339.59;;;2.11;100.00
53546;BME280;39432;51.902;10.844;2023-02-10T05:40:11;101355.75;;;2.03;100.00
53546;BME280;39432;51.902;10.844;2023-02-10T05:42:41;101348.44;;;2.21;100.00
53546;BME280;39432;51.902;10.844;2023-02-10T05:45:10;101352.44;;;2.43;100.00
53546;BME280;39432;51.902;10.844;2023-02-10T05:47:40;101360.16;;;2.04;100.00
53546;BME280;39432;51.902;10.844;2023-02-10T05:50:13;101347.34;;;2.06;100.00
53546;BME280;39432;51.902;10.844;2023-02-10T05:52:43;101350.78;;;2.16;100.00
53546;BME280;39432;51.902;10.844;2023-02-10T05:55:12;101350.41;;;2.11;100.00
53546;BME280;39432;51.902;10.844;2023-02-10T05:57:42;101354.44;;;2.41;100.00
53546;BME280;39432;51.902;10.844;2023-02-10T06:00:14;101347.13;;;2.59;100.00
53546;BME280;39432;51.902;10.844;2023-02-10T06:02:44;101343.88;;;2.48;100.00
53546;BME280;39432;51.902;10.844;2023-02-10T06:05:16;101340.81;;;2.51;100.00
53546;BME280;39432;51.902;10.844;2023-02-10T06:07:46;101342.06;;;2.30;100.00
53546;BME280;39432;51.902;10.844;2023-02-10T06:10:16;101343.13;;;2.37;100.00
53546;BME280;39432;51.902;10.844;2023-02-10T06:12:45;101348.25;;;2.49;100.00
53546;BME280;39432;51.902;10.844;2023-02-10T06:15:15;101351.03;;;1.79;100.00
53546;BME280;39432;51.902;10.844;2023-02-10T06:17:44;101358.66;;;1.83;100.00
53546;BME280;39432;51.902;10.844;2023-02-10T06:20:17;101362.97;;;2.20;100.00
53546;BME280;39432;51.902;10.844;2023-02-10T06:22:49;101360.94;;;2.22;100.00
53546;BME280;39432;51.902;10.844;2023-02-10T06:25:19;101355.44;;;1.62;100.00
53546;BME280;39432;51.902;10.844;2023-02-10T06:27:48;101353.38;;;1.56;100.00
53546;BME280;39432;51.902;10.844;2023-02-10T06:30:18;101356.88;;;1.74;100.00
53546;BME280;39432;51.902;10.844;2023-02-10T06:32:51;101362.22;;;1.66;100.00
53546;BME280;39432;51.902;10.844;2023-02-10T06:35:23;101366.69;;;1.57;100.00
53546;BME280;39432;51.902;10.844;2023-02-10T06:37:53;101374.94;;;1.56;100.00
53546;BME280;39432;51.902;10.844;2023-02-10T06:40:22;101372.09;;;1.57;100.00
53546;BME280;39432;51.902;10.844;2023-02-10T06:42:52;101370.53;;;1.73;100.00
53546;BME280;39432;51.902;10.844;2023-02-10T06:45:22;101370.13;;;1.85;100.00
53546;BME280;39432;51.902;10.844;2023-02-10T06:47:51;101358.28;;;1.78;100.00
53546;BME280;39432;51.902;10.844;2023-02-10T06:50:24;101366.13;;;1.90;100.00
53546;BME280;39432;51.902;10.844;2023-02-10T06:52:53;101362.63;;;1.71;100.00
53546;BME280;39432;51.902;10.844;2023-02-10T06:55:23;101359.00;;;1.63;100.00
53546;BME280;39432;51.902;10.844;2023-02-10T06:57:53;101369.09;;;1.61;100.00
53546;BME280;39432;51.902;10.844;2023-02-10T07:00:22;101377.22;;;1.87;100.00
53546;BME280;39432;51.902;10.844;2023-02-10T07:02:52;101382.19;;;1.73;100.00
53546;BME280;39432;51.902;10.844;2023-02-10T07:05:24;101375.72;;;1.66;100.00
53546;BME280;39432;51.902;10.844;2023-02-10T07:07:54;101376.72;;;1.47;100.00
53546;BME280;39432;51.902;10.844;2023-02-10T07:10:25;101375.63;;;1.76;100.00
53546;BME280;39432;51.902;10.844;2023-02-10T07:12:55;101378.44;;;1.92;100.00
53546;BME280;39432;51.902;10.844;2023-02-10T07:15:25;101373.75;;;2.20;100.00
53546;BME280;39432;51.902;10.844;2023-02-10T07:17:55;101365.41;;;2.40;100.00
53546;BME280;39432;51.902;10.844;2023-02-10T07:20:28;101371.47;;;2.07;100.00
53546;BME280;39432;51.902;10.844;2023-02-10T07:22:57;101367.53;;;2.02;100.00
53546;BME280;39432;51.902;10.844;2023-02-10T07:25:27;101362.34;;;2.34;100.00
53546;BME280;39432;51.902;10.844;2023-02-10T07:27:57;101369.22;;;2.55;100.00
53546;BME280;39432;51.902;10.844;2023-02-10T07:30:27;101370.69;;;2.83;100.00
53546;BME280;39432;51.902;10.844;2023-02-10T07:32:56;101379.47;;;2.85;100.00
53546;BME280;39432;51.902;10.844;2023-02-10T07:35:29;101373.09;;;2.95;100.00
53546;BME280;39432;51.902;10.844;2023-02-10T07:37:58;101379.16;;;2.88;100.00
53546;BME280;39432;51.902;10.844;2023-02-10T07:40:28;101377.66;;;2.94;100.00
53546;BME280;39432;51.902;10.844;2023-02-10T07:42:58;101377.34;;;3.05;100.00
53546;BME280;39432;51.902;10.844;2023-02-10T07:45:37;101385.63;;;3.12;100.00
53546;BME280;39432;51.902;10.844;2023-02-10T07:48:07;101383.28;;;3.17;100.00
53546;BME280;39432;51.902;10.844;2023-02-10T07:50:39;101384.00;;;3.27;100.00
53546;BME280;39432;51.902;10.844;2023-02-10T07:53:09;101396.19;;;3.31;100.00
53546;BME280;39432;51.902;10.844;2023-02-10T07:55:39;101394.50;;;3.38;100.00
53546;BME280;39432;51.902;10.844;2023-02-10T07:58:09;101402.00;;;3.85;100.00
53546;BME280;39432;51.902;10.844;2023-02-10T08:00:39;101393.84;;;3.53;100.00
53546;BME280;39432;51.902;10.844;2023-02-10T08:03:11;101394.88;;;3.60;100.00
53546;BME280;39432;51.902;10.844;2023-02-10T08:05:44;101385.72;;;3.77;100.00
53546;BME280;39432;51.902;10.844;2023-02-10T08:08:15;101389.13;;;3.87;100.00
53546;BME280;39432;51.902;10.844;2023-02-10T08:10:44;101381.31;;;3.84;100.00
53546;BME280;39432;51.902;10.844;2023-02-10T08:13:14;101386.41;;;3.87;100.00
53546;BME280;39432;51.902;10.844;2023-02-10T08:15:44;101398.91;;;4.21;100.00
53546;BME280;39432;51.902;10.844;2023-02-10T08:18:15;101391.31;;;4.72;100.00
53546;BME280;39432;51.902;10.844;2023-02-10T08:20:47;101390.91;;;4.91;100.00
53546;BME280;39432;51.902;10.844;2023-02-10T08:23:17;101394.03;;;4.72;100.00
53546;BME280;39432;51.902;10.844;2023-02-10T08:25:48;101394.44;;;4.53;100.00
53546;BME280;39432;51.902;10.844;2023-02-10T08:28:18;101402.53;;;4.69;100.00
53546;BME280;39432;51.902;10.844;2023-02-10T08:30:48;101400.09;;;4.18;100.00
53546;BME280;39432;51.902;10.844;2023-02-10T08:33:18;101406.69;;;4.16;100.00
53546;BME280;39432;51.902;10.844;2023-02-10T08:35:50;101412.06;;;4.48;100.00
53546;BME280;39432;51.902;10.844;2023-02-10T08:38:20;101404.41;;;4.60;100.00
53546;BME280;39432;51.902;10.844;2023-02-10T08:40:54;101405.09;;;5.01;100.00
53546;BME280;39432;51.902;10.844;2023-02-10T08:43:24;101404.88;;;4.72;100.00
53546;BME280;39432;51.902;10.844;2023-02-10T08:45:55;101404.22;;;4.70;100.00
53546;BME280;39432;51.902;10.844;2023-02-10T08:48:26;101413.97;;;4.95;100.00
53546;BME280;39432;51.902;10.844;2023-02-10T08:50:59;101413.31;;;4.85;100.00
53546;BME280;39432;51.902;10.844;2023-02-10T08:53:29;101420.69;;;4.99;100.00
53546;BME280;39432;51.902;10.844;2023-02-10T08:56:01;101423.44;;;5.31;100.00
53546;BME280;39432;51.902;10.844;2023-02-10T08:58:31;101427.59;;;5.49;100.00
53546;BME280;39432;51.902;10.844;2023-02-10T09:01:01;101422.44;;;4.92;100.00
53546;BME280;39432;51.902;10.844;2023-02-10T09:03:30;101422.94;;;4.88;100.00
53546;BME280;39432;51.902;10.844;2023-02-10T09:06:03;101427.38;;;5.20;100.00
53546;BME280;39432;51.902;10.844;2023-02-10T09:08:32;101424.16;;;4.85;100.00
53546;BME280;39432;51.902;10.844;2023-02-10T09:11:04;101421.25;;;5.26;100.00
53546;BME280;39432;51.902;10.844;2023-02-10T09:13:34;101430.41;;;5.25;100.00
53546;BME280;39432;51.902;10.844;2023-02-10T09:16:05;101426.53;;;5.27;100.00
53546;BME280;39432;51.902;10.844;2023-02-10T09:18:35;101432.81;;;5.20;100.00
53546;BME280;39432;51.902;10.844;2023-02-10T09:21:08;101430.00;;;5.44;100.00
53546;BME280;39432;51.902;10.844;2023-02-10T09:23:38;101421.00;;;5.13;100.00
53546;BME280;39432;51.902;10.844;2023-02-10T09:26:09;101428.78;;;5.70;100.00
53546;BME280;39432;51.902;10.844;2023-02-10T09:28:39;101428.78;;;5.47;100.00
53546;BME280;39432;51.902;10.844;2023-02-10T09:31:09;101422.41;;;5.63;100.00
53546;BME280;39432;51.902;10.844;2023-02-10T09:33:41;101426.03;;;6.01;100.00
53546;BME280;39432;51.902;10.844;2023-02-10T09:36:16;101426.59;;;5.96;100.00
53546;BME280;39432;51.902;10.844;2023-02-10T09:38:46;101421.06;;;5.59;100.00
53546;BME280;39432;51.902;10.844;2023-02-10T09:41:28;101419.22;;;5.28;100.00
53546;BME280;39432;51.902;10.844;2023-02-10T09:44:08;101421.84;;;5.44;100.00
53546;BME280;39432;51.902;10.844;2023-02-10T09:46:46;101421.47;;;5.16;100.00
53546;BME280;39432;51.902;10.844;2023-02-10T09:49:32;101423.94;;;5.34;100.00
53546;BME280;39432;51.902;10.844;2023-02-10T09:52:16;101410.91;;;5.52;100.00
53546;BME280;39432;51.902;10.844;2023-02-10T09:54:48;101416.34;;;5.52;100.00
53546;BME280;39432;51.902;10.844;2023-02-10T09:57:21;101411.97;;;5.43;100.00
53546;BME280;39432;51.902;10.844;2023-02-10T09:59:54;101409.84;;;5.62;100.00
53546;BME280;39432;51.902;10.844;2023-02-10T10:02:28;101402.47;;;5.70;100.00
53546;BME280;39432;51.902;10.844;2023-02-10T10:05:11;101399.22;;;5.75;100.00
53546;BME280;39432;51.902;10.844;2023-02-10T10:07:49;101395.25;;;5.63;100.00
53546;BME280;39432;51.902;10.844;2023-02-10T10:10:23;101398.88;;;5.78;100.00
53546;BME280;39432;51.902;10.844;2023-02-10T10:12:54;101397.16;;;5.54;100.00
53546;BME280;39432;51.902;10.844;2023-02-10T10:15:28;101396.19;;;5.70;100.00
53546;BME280;39432;51.902;10.844;2023-02-10T10:18:10;101399.94;;;5.69;100.00
53546;BME280;39432;51.902;10.844;2023-02-10T10:20:50;101396.00;;;5.71;100.00
53546;BME280;39432;51.902;10.844;2023-02-10T10:23:33;101398.50;;;5.58;100.00
53546;BME280;39432;51.902;10.844;2023-02-10T10:26:19;101397.22;;;5.69;100.00
53546;BME280;39432;51.902;10.844;2023-02-10T10:29:18;101403.44;;;5.54;100.00
53546;BME280;39432;51.902;10.844;2023-02-10T10:31:55;101396.31;;;5.76;100.00
53546;BME280;39432;51.902;10.844;2023-02-10T10:37:59;101385.84;;;5.96;100.00
53546;BME280;39432;51.902;10.844;2023-02-10T10:40:32;101385.31;;;6.16;100.00
53546;BME280;39432;51.902;10.844;2023-02-10T10:43:03;101385.88;;;6.26;100.00
53546;BME280;39432;51.902;10.844;2023-02-10T10:45:35;101386.78;;;6.03;100.00
53546;BME280;39432;51.902;10.844;2023-02-10T10:48:12;101396.09;;;6.24;100.00
53546;BME280;39432;51.902;10.844;2023-02-10T10:50:43;101393.72;;;6.06;100.00
53546;BME280;39432;51.902;10.844;2023-02-10T10:53:15;101392.44;;;6.17;100.00
53546;BME280;39432;51.902;10.844;2023-02-10T10:55:50;101387.47;;;6.20;100.00
53546;BME280;39432;51.902;10.844;2023-02-10T10:58:24;101384.06;;;6.03;100.00
53546;BME280;39432;51.902;10.844;2023-02-10T11:00:57;101388.66;;;5.80;100.00
53546;BME280;39432;51.902;10.844;2023-02-10T11:03:27;101382.97;;;6.13;100.00
53546;BME280;39432;51.902;10.844;2023-02-10T11:06:00;101382.50;;;6.24;100.00
53546;BME280;39432;51.902;10.844;2023-02-10T11:08:34;101392.09;;;5.97;100.00
53546;BME280;39432;51.902;10.844;2023-02-10T11:11:12;101386.63;;;6.20;100.00
53546;BME280;39432;51.902;10.844;2023-02-10T11:14:03;101390.09;;;5.91;100.00
53546;BME280;39432;51.902;10.844;2023-02-10T11:16:41;101388.44;;;6.27;100.00
53546;BME280;39432;51.902;10.844;2023-02-10T11:19:21;101386.47;;;6.36;100.00
53546;BME280;39432;51.902;10.844;2023-02-10T11:21:52;101386.66;;;5.97;100.00
53546;BME280;39432;51.902;10.844;2023-02-10T11:24:23;101390.19;;;6.05;100.00
53546;BME280;39432;51.902;10.844;2023-02-10T11:27:02;101385.44;;;6.22;100.00
53546;BME280;39432;51.902;10.844;2023-02-10T11:29:35;101381.56;;;6.17;100.00
53546;BME280;39432;51.902;10.844;2023-02-10T11:32:18;101388.44;;;6.27;100.00
53546;BME280;39432;51.902;10.844;2023-02-10T11:34:49;101383.63;;;6.15;100.00
53546;BME280;39432;51.902;10.844;2023-02-10T11:37:23;101386.56;;;6.28;100.00
53546;BME280;39432;51.902;10.844;2023-02-10T11:39:56;101390.44;;;6.48;100.00
53546;BME280;39432;51.902;10.844;2023-02-10T11:42:31;101389.94;;;5.92;100.00
53546;BME280;39432;51.902;10.844;2023-02-10T11:45:10;101384.97;;;6.33;100.00
53546;BME280;39432;51.902;10.844;2023-02-10T11:47:45;101396.41;;;6.29;100.00
53546;BME280;39432;51.902;10.844;2023-02-10T11:50:19;101391.81;;;6.29;100.00
53546;BME280;39432;51.902;10.844;2023-02-10T11:52:49;101393.88;;;6.27;100.00
53546;BME280;39432;51.902;10.844;2023-02-10T11:55:20;101384.59;;;6.22;100.00
53546;BME280;39432;51.902;10.844;2023-02-10T11:58:13;101386.78;;;6.03;100.00
53546;BME280;39432;51.902;10.844;2023-02-10T12:01:15;101378.66;;;6.18;100.00
53546;BME280;39432;51.902;10.844;2023-02-10T12:04:00;101387.38;;;6.14;100.00
53546;BME280;39432;51.902;10.844;2023-02-10T12:06:36;101373.50;;;5.86;100.00
53546;BME280;39432;51.902;10.844;2023-02-10T12:09:12;101381.53;;;6.02;100.00
53546;BME280;39432;51.902;10.844;2023-02-10T12:11:52;101374.53;;;6.07;100.00
53546;BME280;39432;51.902;10.844;2023-02-10T12:14:52;101373.88;;;6.05;100.00
53546;BME280;39432;51.902;10.844;2023-02-10T12:17:26;101372.34;;;5.80;100.00
53546;BME280;39432;51.902;10.844;2023-02-10T12:20:05;101369.13;;;5.62;100.00
53546;BME280;39432;51.902;10.844;2023-02-10T12:22:56;101375.16;;;5.72;100.00
53546;BME280;39432;51.902;10.844;2023-02-10T12:25:33;101373.16;;;5.89;100.00
53546;BME280;39432;51.902;10.844;2023-02-10T12:28:10;101382.81;;;5.91;100.00
53546;BME280;39432;51.902;10.844;2023-02-10T12:30:53;101377.25;;;5.62;100.00
53546;BME280;39432;51.902;10.844;2023-02-10T12:33:48;101378.16;;;5.77;100.00
53546;BME280;39432;51.902;10.844;2023-02-10T12:36:27;101375.81;;;5.74;100.00
53546;BME280;39432;51.902;10.844;2023-02-10T12:39:05;101374.97;;;5.73;100.00
53546;BME280;39432;51.902;10.844;2023-02-10T12:41:45;101373.00;;;5.82;100.00
53546;BME280;39432;51.902;10.844;2023-02-10T12:44:29;101381.88;;;5.76;100.00
53546;BME280;39432;51.902;10.844;2023-02-10T12:47:15;101375.81;;;5.97;100.00
53546;BME280;39432;51.902;10.844;2023-02-10T12:50:00;101376.88;;;5.88;100.00
53546;BME280;39432;51.902;10.844;2023-02-10T12:52:35;101382.28;;;5.73;100.00
53546;BME280;39432;51.902;10.844;2023-02-10T12:55:14;101370.38;;;5.74;100.00
53546;BME280;39432;51.902;10.844;2023-02-10T12:57:47;101376.13;;;5.56;100.00
53546;BME280;39432;51.902;10.844;2023-02-10T13:00:21;101368.31;;;5.76;100.00
53546;BME280;39432;51.902;10.844;2023-02-10T13:02:59;101372.28;;;5.65;100.00
53546;BME280;39432;51.902;10.844;2023-02-10T13:05:32;101368.78;;;6.02;100.00
53546;BME280;39432;51.902;10.844;2023-02-10T13:08:10;101366.31;;;5.70;100.00
53546;BME280;39432;51.902;10.844;2023-02-10T13:10:44;101373.00;;;5.82;100.00
53546;BME280;39432;51.902;10.844;2023-02-10T13:13:18;101372.31;;;5.88;100.00
53546;BME280;39432;51.902;10.844;2023-02-10T13:15:52;101368.19;;;5.69;100.00
53546;BME280;39432;51.902;10.844;2023-02-10T13:18:28;101370.91;;;5.92;100.00